Time;durP1;ratioP1;P1;durP2;ratioP2;P2;SDS_P1;SDS_P2;PMS_P1;PMS_P2;Temp;Humidity;BMP_temperature;BMP_pressure;BME280_temperature;BME280_humidity;BME280_pressure;Samples;Min_cycle;Max_cycle;Signal;HPM_P1;HPM_P2
2021/05/19 00:00:06;;;;;;;1.97;1.73;;;12.60;80.10;;;;;;5045521;28;20276;-89
2021/05/19 00:02:32;;;;;;;1.70;1.60;;;12.60;80.60;;;;;;5046202;28;20244;-88
2021/05/19 00:04:57;;;;;;;2.07;1.80;;;12.50;81.00;;;;;;5046804;28;20183;-88
2021/05/19 00:07:23;;;;;;;2.13;1.80;;;12.40;81.10;;;;;;5044597;28;20214;-89
2021/05/19 00:09:52;;;;;;;1.80;1.70;;;12.40;81.00;;;;;;5046286;28;20187;-89
2021/05/19 00:12:17;;;;;;;2.00;1.80;;;12.30;81.70;;;;;;5046448;28;20585;-89
2021/05/19 00:14:43;;;;;;;2.27;2.07;;;12.20;82.40;;;;;;5046334;28;20190;-89
2021/05/19 00:17:09;;;;;;;3.03;2.00;;;12.20;82.40;;;;;;5045757;28;20531;-89
2021/05/19 00:19:35;;;;;;;2.27;1.90;;;12.30;82.10;;;;;;5060159;28;20182;-89
2021/05/19 00:22:01;;;;;;;4.20;1.90;;;12.30;82.20;;;;;;5064387;28;20210;-90
2021/05/19 00:24:27;;;;;;;2.13;1.87;;;12.20;82.50;;;;;;5065968;28;20275;-88
2021/05/19 00:26:53;;;;;;;2.10;1.90;;;12.00;83.60;;;;;;5064703;28;20186;-89
2021/05/19 00:29:19;;;;;;;2.33;1.67;;;12.10;83.40;;;;;;5065045;28;20182;-90
2021/05/19 00:31:44;;;;;;;2.43;1.97;;;12.00;83.80;;;;;;5064293;28;20218;-89
2021/05/19 00:34:12;;;;;;;1.83;1.73;;;12.00;84.10;;;;;;5064936;28;20264;-89
2021/05/19 00:36:38;;;;;;;3.33;2.20;;;12.00;84.10;;;;;;5064744;28;20517;-89
2021/05/19 00:39:09;;;;;;;2.93;1.93;;;12.00;83.80;;;;;;5065347;28;20185;-89
2021/05/19 00:41:36;;;;;;;2.00;1.90;;;11.90;84.40;;;;;;5065804;28;20201;-89
2021/05/19 00:44:07;;;;;;;2.00;1.90;;;11.80;84.50;;;;;;5064323;28;20190;-89
2021/05/19 00:46:34;;;;;;;2.60;1.80;;;11.70;85.00;;;;;;5065044;28;20261;-90
2021/05/19 00:49:00;;;;;;;2.20;2.00;;;11.80;85.40;;;;;;5065298;28;20287;-89
2021/05/19 00:51:26;;;;;;;2.43;1.97;;;11.80;85.20;;;;;;5064217;28;20225;-89
2021/05/19 00:53:55;;;;;;;3.00;1.97;;;11.70;85.10;;;;;;5065864;28;20174;-89
2021/05/19 00:56:22;;;;;;;2.00;1.90;;;11.70;85.30;;;;;;5064093;28;20188;-89
2021/05/19 00:58:48;;;;;;;3.80;2.43;;;11.60;85.80;;;;;;5065291;28;20181;-89
2021/05/19 01:01:14;;;;;;;2.20;1.90;;;11.60;85.40;;;;;;5063456;28;20194;-89
2021/05/19 01:03:40;;;;;;;1.97;1.87;;;11.70;85.00;;;;;;5064857;28;20257;-89
2021/05/19 01:06:10;;;;;;;2.97;2.03;;;11.80;84.60;;;;;;5063266;28;20220;-89
2021/05/19 01:11:20;;;;;;;2.13;2.00;;;11.70;85.00;;;;;;5043657;28;20239;-89
2021/05/19 01:13:47;;;;;;;2.23;2.03;;;11.60;85.30;;;;;;5041952;28;20186;-89
2021/05/19 01:16:15;;;;;;;2.50;2.30;;;11.40;85.70;;;;;;5043262;28;20231;-89
2021/05/19 01:18:42;;;;;;;2.23;1.87;;;11.40;85.60;;;;;;5043713;28;20204;-89
2021/05/19 01:21:09;;;;;;;2.63;1.97;;;11.50;86.00;;;;;;5042997;28;20201;-89
2021/05/19 01:23:37;;;;;;;2.20;2.00;;;11.30;86.20;;;;;;5042366;28;20181;-89
2021/05/19 01:26:06;;;;;;;2.70;2.13;;;11.20;86.60;;;;;;5059008;28;20352;-89
2021/05/19 01:28:32;;;;;;;3.63;2.10;;;11.10;87.50;;;;;;5063563;28;20184;-89
2021/05/19 01:30:58;;;;;;;4.63;2.03;;;11.00;87.60;;;;;;5063791;28;20249;-89
2021/05/19 01:33:25;;;;;;;3.13;2.13;;;11.10;87.70;;;;;;5063353;28;20197;-88
2021/05/19 01:35:51;;;;;;;2.47;2.27;;;11.10;87.80;;;;;;5048481;28;20188;-89
2021/05/19 01:38:17;;;;;;;2.40;2.20;;;11.10;87.40;;;;;;5041484;28;20173;-89
2021/05/19 01:40:43;;;;;;;2.63;2.27;;;11.10;87.70;;;;;;5043288;28;20208;-88
2021/05/19 01:43:10;;;;;;;2.50;2.07;;;11.00;87.50;;;;;;5042790;28;20169;-88
2021/05/19 01:45:35;;;;;;;2.67;2.27;;;10.90;88.10;;;;;;5043069;28;20181;-88
2021/05/19 01:48:01;;;;;;;3.17;2.20;;;10.90;89.20;;;;;;5042968;28;20189;-89
2021/05/19 01:50:34;;;;;;;3.87;2.20;;;10.90;88.10;;;;;;5042481;28;20219;-89
2021/05/19 01:53:02;;;;;;;3.57;2.40;;;10.80;88.50;;;;;;5043298;28;20260;-89
2021/05/19 01:55:29;;;;;;;5.13;2.40;;;10.80;88.80;;;;;;5041363;28;20189;-88
2021/05/19 01:57:55;;;;;;;3.93;2.20;;;10.80;88.60;;;;;;5042349;28;20661;-88
2021/05/19 02:00:24;;;;;;;3.73;2.50;;;10.80;88.40;;;;;;5042358;28;20205;-88
2021/05/19 02:03:02;;;;;;;2.67;2.37;;;10.70;89.20;;;;;;5051018;28;20177;-88
2021/05/19 02:05:29;;;;;;;4.23;3.10;;;10.60;89.60;;;;;;5050695;28;20161;-89
2021/05/19 02:07:56;;;;;;;2.30;2.10;;;10.60;89.60;;;;;;5049702;28;20185;-88
2021/05/19 02:10:22;;;;;;;2.13;1.97;;;10.50;90.00;;;;;;5043768;28;20205;-89
2021/05/19 02:12:48;;;;;;;4.93;2.50;;;10.50;90.20;;;;;;5042062;28;20196;-88
2021/05/19 02:15:16;;;;;;;2.57;2.23;;;10.50;90.10;;;;;;5056630;28;20184;-88
2021/05/19 02:17:43;;;;;;;3.27;2.97;;;10.50;90.20;;;;;;5061797;28;20172;-88
2021/05/19 02:20:12;;;;;;;2.97;2.63;;;10.50;89.80;;;;;;5063134;28;20193;-89
2021/05/19 02:22:42;;;;;;;2.67;2.23;;;10.40;90.40;;;;;;5063069;28;20180;-89
2021/05/19 02:25:09;;;;;;;3.97;3.30;;;10.40;90.60;;;;;;5063291;28;20271;-90
2021/05/19 02:27:35;;;;;;;4.17;2.50;;;10.50;90.30;;;;;;5062867;28;20181;-89
2021/05/19 02:30:04;;;;;;;3.10;2.30;;;10.60;89.50;;;;;;5061879;28;20238;-89
2021/05/19 02:32:30;;;;;;;3.37;2.40;;;10.60;89.20;;;;;;5072123;28;20227;-88
2021/05/19 02:34:56;;;;;;;2.40;2.20;;;10.60;89.80;;;;;;5076149;28;20207;-88
2021/05/19 02:37:21;;;;;;;3.70;2.23;;;10.70;89.00;;;;;;5076791;28;20244;-88
2021/05/19 02:39:48;;;;;;;2.93;2.37;;;10.60;89.10;;;;;;5066009;28;20192;-89
2021/05/19 02:42:13;;;;;;;3.57;2.30;;;10.70;88.90;;;;;;5113892;22;20227;-89
2021/05/19 02:44:39;;;;;;;5.27;2.60;;;10.60;89.40;;;;;;5039460;28;20181;-91
2021/05/19 02:47:05;;;;;;;2.50;2.30;;;10.60;89.20;;;;;;5044303;28;20208;-90
2021/05/19 02:49:31;;;;;;;2.53;2.33;;;10.60;89.50;;;;;;5055712;28;20280;-89
2021/05/19 02:51:57;;;;;;;3.20;2.90;;;10.70;89.00;;;;;;5045924;28;20217;-90
2021/05/19 02:54:22;;;;;;;3.23;2.30;;;10.70;88.80;;;;;;5044438;28;20164;-90
2021/05/19 02:56:48;;;;;;;3.63;2.50;;;10.70;88.60;;;;;;5049656;28;20169;-90
2021/05/19 02:59:14;;;;;;;3.40;2.70;;;10.60;88.80;;;;;;5057453;28;20372;-89
2021/05/19 03:01:40;;;;;;;3.43;2.97;;;10.70;88.90;;;;;;5045232;28;20209;-90
2021/05/19 03:04:06;;;;;;;2.90;2.30;;;10.60;89.40;;;;;;5038804;28;20239;-90
2021/05/19 03:06:32;;;;;;;4.17;2.50;;;10.50;89.80;;;;;;5039177;28;20214;-90
2021/05/19 03:08:58;;;;;;;3.07;2.50;;;10.60;89.40;;;;;;5038953;28;20193;-89
2021/05/19 03:11:23;;;;;;;4.20;2.30;;;10.50;89.40;;;;;;5038866;28;20611;-90
2021/05/19 03:13:49;;;;;;;3.23;2.40;;;10.50;89.80;;;;;;5037749;28;20204;-90
2021/05/19 03:16:15;;;;;;;3.60;2.33;;;10.50;89.80;;;;;;5038292;28;20606;-91
2021/05/19 03:18:41;;;;;;;3.60;2.43;;;10.50;89.30;;;;;;5051496;28;20169;-88
2021/05/19 03:21:07;;;;;;;3.57;2.70;;;10.50;89.90;;;;;;5048363;28;20276;-89
2021/05/19 03:23:33;;;;;;;3.37;2.40;;;10.50;89.30;;;;;;5069300;28;20212;-89
2021/05/19 03:25:58;;;;;;;3.03;2.50;;;10.50;89.30;;;;;;5059029;28;20204;-89
2021/05/19 03:28:25;;;;;;;2.80;2.50;;;10.60;88.50;;;;;;5042237;28;20173;-90
2021/05/19 03:30:51;;;;;;;3.00;2.63;;;10.50;89.10;;;;;;5041664;28;20235;-90
2021/05/19 03:33:17;;;;;;;4.53;2.60;;;10.40;89.60;;;;;;5041124;28;20216;-89
2021/05/19 03:35:43;;;;;;;4.03;2.60;;;10.50;89.20;;;;;;5042577;28;20530;-89
2021/05/19 03:38:09;;;;;;;4.03;2.50;;;10.50;88.70;;;;;;5042031;28;20177;-90
2021/05/19 03:40:35;;;;;;;3.30;2.40;;;10.60;88.80;;;;;;5041033;28;20177;-90
2021/05/19 03:43:01;;;;;;;2.40;2.20;;;10.60;88.40;;;;;;5040752;28;20247;-90
2021/05/19 03:45:28;;;;;;;5.30;2.40;;;10.60;88.30;;;;;;5057780;28;20180;-90
2021/05/19 03:47:54;;;;;;;2.37;2.17;;;10.60;87.80;;;;;;5042637;28;20193;-90
2021/05/19 03:50:22;;;;;;;2.47;2.23;;;10.70;87.70;;;;;;5043953;28;20185;-90
2021/05/19 03:52:48;;;;;;;2.43;2.20;;;10.80;87.20;;;;;;5041658;28;20703;-90
2021/05/19 03:55:14;;;;;;;3.47;2.60;;;10.90;86.70;;;;;;5040791;28;20201;-90
2021/05/19 03:57:40;;;;;;;3.03;2.20;;;10.90;86.20;;;;;;5057718;28;20810;-90
2021/05/19 04:00:12;;;;;;;3.50;2.63;;;11.00;86.20;;;;;;5041661;28;20182;-90
2021/05/19 04:02:39;;;;;;;3.67;2.40;;;11.00;86.40;;;;;;5057027;28;20205;-90
2021/05/19 04:05:05;;;;;;;4.17;2.50;;;11.00;86.10;;;;;;5042010;28;20185;-90
2021/05/19 04:07:31;;;;;;;3.70;2.20;;;11.10;86.00;;;;;;5041080;28;20182;-90
2021/05/19 04:09:56;;;;;;;4.80;2.20;;;11.00;86.30;;;;;;5043325;28;20268;-90
2021/05/19 04:12:22;;;;;;;2.40;2.20;;;11.00;86.50;;;;;;5041013;28;20237;-90
2021/05/19 04:14:48;;;;;;;3.93;2.30;;;11.00;86.50;;;;;;5024060;28;20616;-90
2021/05/19 04:17:13;;;;;;;4.03;2.10;;;10.90;86.50;;;;;;5057698;28;20189;-90
2021/05/19 04:19:41;;;;;;;2.03;1.93;;;10.80;87.50;;;;;;5040927;28;20177;-90
2021/05/19 04:22:07;;;;;;;3.40;2.10;;;10.70;88.30;;;;;;5039565;28;20209;-90
2021/05/19 04:24:33;;;;;;;2.27;2.07;;;10.70;88.00;;;;;;5041591;28;20191;-90
2021/05/19 04:26:59;;;;;;;2.47;2.27;;;10.80;88.10;;;;;;5038658;28;20264;-91
2021/05/19 04:29:25;;;;;;;3.27;2.30;;;10.80;87.60;;;;;;5040093;28;20184;-90
2021/05/19 04:31:51;;;;;;;5.00;2.40;;;10.70;88.40;;;;;;5040088;28;20213;-90
2021/05/19 04:34:18;;;;;;;2.10;2.00;;;10.70;88.30;;;;;;5038072;28;20254;-90
2021/05/19 04:36:44;;;;;;;3.43;2.07;;;10.70;88.70;;;;;;5038609;28;20185;-91
2021/05/19 04:39:09;;;;;;;4.10;2.33;;;10.70;88.70;;;;;;5021755;28;20250;-91
2021/05/19 04:41:35;;;;;;;3.13;2.20;;;10.80;88.60;;;;;;5039525;28;20180;-91
2021/05/19 04:44:01;;;;;;;2.77;2.40;;;10.80;88.50;;;;;;5038940;28;20181;-91
2021/05/19 04:46:26;;;;;;;2.87;2.30;;;10.80;88.70;;;;;;5054274;28;20632;-91
2021/05/19 04:48:58;;;;;;;3.40;2.80;;;10.80;88.70;;;;;;5053127;28;20192;-91
2021/05/19 04:51:23;;;;;;;5.23;2.50;;;10.80;88.40;;;;;;5039094;28;20200;-89
2021/05/19 04:53:49;;;;;;;3.43;2.30;;;10.70;88.90;;;;;;5039429;28;20205;-89
2021/05/19 04:56:14;;;;;;;4.60;2.40;;;10.70;88.90;;;;;;5038274;28;20259;-89
2021/05/19 04:58:40;;;;;;;3.50;2.60;;;10.70;88.60;;;;;;5019517;28;20189;-87
2021/05/19 05:01:06;;;;;;;5.97;2.67;;;10.70;88.90;;;;;;5014031;28;20207;-87
2021/05/19 05:03:31;;;;;;;3.20;2.70;;;10.70;89.00;;;;;;5015885;28;20201;-87
2021/05/19 05:05:58;;;;;;;3.03;2.70;;;10.70;89.00;;;;;;5015945;28;20186;-87
2021/05/19 05:08:24;;;;;;;3.43;3.13;;;10.70;88.80;;;;;;5016471;28;20178;-86
2021/05/19 05:10:49;;;;;;;5.30;2.97;;;10.70;89.20;;;;;;5016170;28;20180;-87
2021/05/19 05:13:15;;;;;;;3.47;2.87;;;10.70;89.30;;;;;;5007964;28;20217;-87
2021/05/19 05:15:41;;;;;;;2.80;2.60;;;10.70;89.70;;;;;;5023860;28;20707;-87
2021/05/19 05:18:06;;;;;;;5.90;3.50;;;10.80;89.30;;;;;;5014938;28;20265;-87
2021/05/19 05:20:32;;;;;;;3.70;3.07;;;10.90;88.70;;;;;;5016151;28;20179;-87
2021/05/19 05:22:58;;;;;;;4.33;2.53;;;11.00;88.20;;;;;;5014032;28;20281;-87
2021/05/19 05:25:24;;;;;;;2.83;2.63;;;11.00;88.50;;;;;;5015172;28;20227;-87
2021/05/19 05:27:50;;;;;;;3.53;2.97;;;10.90;88.70;;;;;;5014833;28;20246;-86
2021/05/19 05:30:17;;;;;;;3.57;3.10;;;10.90;89.20;;;;;;5030818;28;20184;-87
2021/05/19 05:32:43;;;;;;;4.40;2.80;;;11.00;88.80;;;;;;5021997;28;20242;-87
2021/05/19 05:35:10;;;;;;;5.17;3.50;;;11.00;88.80;;;;;;5026479;28;20165;-86
2021/05/19 05:37:36;;;;;;;3.70;3.30;;;11.00;88.20;;;;;;5035702;28;20193;-87
2021/05/19 05:40:03;;;;;;;3.90;3.50;;;11.00;88.50;;;;;;5040259;28;20177;-85
2021/05/19 05:42:29;;;;;;;5.80;3.77;;;11.10;88.00;;;;;;5029493;28;20316;-87
2021/05/19 05:44:54;;;;;;;3.60;3.30;;;11.10;88.20;;;;;;5044825;28;20217;-85
2021/05/19 05:47:20;;;;;;;6.60;4.10;;;11.20;87.50;;;;;;5053032;28;20170;-85
2021/05/19 05:49:45;;;;;;;5.17;3.83;;;11.10;88.00;;;;;;5030774;28;20201;-87
2021/05/19 05:52:11;;;;;;;4.70;3.80;;;11.20;86.80;;;;;;5015573;28;20230;-87
2021/05/19 05:54:38;;;;;;;4.23;3.93;;;11.30;87.00;;;;;;5027697;28;20185;-87
2021/05/19 05:57:04;;;;;;;4.33;3.77;;;11.20;87.00;;;;;;5027084;28;20565;-87
2021/05/19 05:59:29;;;;;;;5.23;4.50;;;11.10;87.80;;;;;;5027113;28;20271;-87
2021/05/19 06:01:56;;;;;;;5.33;4.20;;;11.20;87.80;;;;;;5029452;28;20220;-87
2021/05/19 06:04:22;;;;;;;4.90;4.10;;;11.30;86.50;;;;;;5032425;28;20235;-87
2021/05/19 06:06:47;;;;;;;4.27;3.87;;;11.30;87.00;;;;;;5030191;28;20180;-87
2021/05/19 06:09:13;;;;;;;6.03;3.70;;;11.40;86.60;;;;;;5025183;28;20263;-87
2021/05/19 06:11:38;;;;;;;5.80;3.53;;;11.30;86.30;;;;;;5029496;28;20240;-87
2021/05/19 06:14:04;;;;;;;4.27;3.83;;;11.40;86.80;;;;;;5022769;28;20178;-87
2021/05/19 06:16:30;;;;;;;4.33;3.70;;;11.40;86.60;;;;;;5027969;28;20181;-87
2021/05/19 06:18:55;;;;;;;9.50;4.43;;;11.40;86.40;;;;;;5040056;28;20178;-87
2021/05/19 06:21:21;;;;;;;5.43;4.00;;;11.50;85.90;;;;;;5031709;28;20844;-87
2021/05/19 06:23:47;;;;;;;5.60;4.77;;;11.60;85.40;;;;;;5036868;28;20195;-86
2021/05/19 06:26:12;;;;;;;4.97;4.47;;;11.50;85.90;;;;;;5030141;28;20222;-87
2021/05/19 06:28:38;;;;;;;5.00;4.20;;;11.50;85.60;;;;;;5036103;28;20249;-87
2021/05/19 06:31:04;;;;;;;5.13;4.43;;;11.40;86.80;;;;;;5032622;28;20181;-87
2021/05/19 06:33:29;;;;;;;5.13;4.50;;;11.40;87.50;;;;;;5032467;28;20201;-87
2021/05/19 06:35:55;;;;;;;5.10;4.60;;;11.40;87.70;;;;;;5028673;28;20585;-87
2021/05/19 06:38:21;;;;;;;5.70;4.20;;;11.30;86.80;;;;;;5023258;28;20847;-86
2021/05/19 06:40:47;;;;;;;5.90;5.30;;;11.30;86.40;;;;;;5034597;28;20278;-87
2021/05/19 06:43:13;;;;;;;6.00;4.67;;;11.40;86.80;;;;;;5036770;28;20233;-87
2021/05/19 06:45:39;;;;;;;6.27;5.23;;;11.30;86.80;;;;;;5036498;28;20239;-87
2021/05/19 06:48:05;;;;;;;4.90;4.40;;;11.30;86.40;;;;;;5035140;28;20204;-87
2021/05/19 06:50:31;;;;;;;5.90;5.23;;;11.40;86.80;;;;;;5035578;28;20188;-87
2021/05/19 06:52:56;;;;;;;6.27;5.30;;;11.30;86.30;;;;;;5034305;28;20225;-87
2021/05/19 06:55:23;;;;;;;5.37;4.93;;;11.40;85.80;;;;;;5038636;28;20204;-87
2021/05/19 06:57:49;;;;;;;5.40;4.87;;;11.40;85.60;;;;;;5038766;28;20178;-86
2021/05/19 07:00:15;;;;;;;8.90;5.90;;;11.50;85.80;;;;;;5041672;28;20178;-86
2021/05/19 07:02:41;;;;;;;6.13;5.53;;;11.60;85.10;;;;;;5050361;28;20216;-86
2021/05/19 07:05:08;;;;;;;7.70;5.33;;;11.70;84.30;;;;;;5044490;28;20193;-86
2021/05/19 07:07:34;;;;;;;7.43;6.47;;;11.60;83.70;;;;;;5042917;28;20186;-87
2021/05/19 07:09:59;;;;;;;5.93;5.20;;;11.70;84.60;;;;;;5040296;28;20313;-87
2021/05/19 07:12:25;;;;;;;6.10;5.60;;;11.80;83.10;;;;;;5040303;28;20284;-85
2021/05/19 07:14:55;;;;;;;5.33;4.83;;;11.70;84.10;;;;;;5046621;28;20192;-86
2021/05/19 07:17:20;;;;;;;6.43;5.57;;;11.90;83.60;;;;;;5049632;28;20161;-87
2021/05/19 07:19:46;;;;;;;5.53;4.97;;;12.00;83.20;;;;;;5051168;28;20250;-86
2021/05/19 07:22:13;;;;;;;6.10;5.50;;;12.20;82.20;;;;;;5036616;28;20206;-86
2021/05/19 07:24:39;;;;;;;5.57;5.17;;;12.30;81.80;;;;;;5031121;28;20210;-87
2021/05/19 07:27:05;;;;;;;6.63;5.10;;;12.30;81.80;;;;;;5032513;28;20198;-86
2021/05/19 07:29:32;;;;;;;5.20;4.70;;;12.20;81.20;;;;;;5043655;28;20188;-87
2021/05/19 07:31:59;;;;;;;6.13;5.17;;;12.20;81.80;;;;;;5023083;28;20229;-87
2021/05/19 07:34:25;;;;;;;6.17;4.80;;;12.30;81.50;;;;;;5037504;28;20200;-87
2021/05/19 07:36:51;;;;;;;5.30;4.80;;;12.30;80.70;;;;;;5035854;28;20190;-86
2021/05/19 07:39:18;;;;;;;5.73;5.07;;;12.40;80.90;;;;;;5034645;28;20188;-86
2021/05/19 07:41:43;;;;;;;6.50;4.80;;;12.50;80.50;;;;;;5044781;28;20207;-86
2021/05/19 07:44:09;;;;;;;7.43;5.23;;;12.50;80.20;;;;;;5029173;28;20193;-87
2021/05/19 07:46:37;;;;;;;6.10;4.80;;;12.50;81.40;;;;;;5032967;28;20196;-87
2021/05/19 07:49:03;;;;;;;6.60;5.50;;;12.70;78.80;;;;;;5039791;28;20186;-86
2021/05/19 07:51:29;;;;;;;5.83;5.07;;;12.60;78.80;;;;;;5025106;28;20195;-86
2021/05/19 07:53:55;;;;;;;5.40;4.90;;;12.70;79.80;;;;;;5034981;28;20239;-87
2021/05/19 07:56:34;;;;;;;5.60;5.10;;;12.80;79.10;;;;;;5041059;28;20261;-86
2021/05/19 08:04:01;;;;;;;5.87;4.97;;;13.20;78.60;;;;;;5044541;28;20275;-86
2021/05/19 08:06:28;;;;;;;5.93;5.30;;;13.40;76.70;;;;;;5148514;23;20236;-86
2021/05/19 08:08:53;;;;;;;5.77;5.20;;;13.30;78.10;;;;;;5083767;28;20186;-86
2021/05/19 08:11:19;;;;;;;8.53;5.33;;;13.40;77.30;;;;;;5081929;28;20249;-86
2021/05/19 08:13:48;;;;;;;5.73;5.23;;;13.40;76.50;;;;;;5064243;28;20183;-86
2021/05/19 08:16:15;;;;;;;7.67;5.43;;;13.50;77.30;;;;;;5065793;28;20187;-87
2021/05/19 08:18:43;;;;;;;6.07;5.20;;;13.50;77.20;;;;;;5066443;28;20182;-87
2021/05/19 08:21:10;;;;;;;5.57;4.60;;;13.50;76.40;;;;;;5072893;28;20207;-86
2021/05/19 08:23:36;;;;;;;5.87;4.23;;;13.50;74.80;;;;;;5068205;28;20210;-86
2021/05/19 08:26:06;;;;;;;5.50;3.97;;;13.60;72.90;;;;;;5062521;28;20191;-86
2021/05/19 08:28:33;;;;;;;4.47;3.93;;;13.60;73.90;;;;;;5062260;28;20250;-86
2021/05/19 08:30:59;;;;;;;7.90;4.43;;;13.70;72.60;;;;;;5077383;28;20183;-85
2021/05/19 08:33:24;;;;;;;5.83;3.83;;;13.70;70.50;;;;;;5073068;28;20306;-87
2021/05/19 08:35:50;;;;;;;4.00;3.70;;;13.80;69.60;;;;;;5063121;28;20654;-86
2021/05/19 08:38:16;;;;;;;4.93;3.40;;;13.80;68.10;;;;;;5061505;28;20207;-87
2021/05/19 08:40:41;;;;;;;5.03;3.47;;;13.80;70.10;;;;;;5059895;28;20299;-87
2021/05/19 08:43:09;;;;;;;4.13;3.17;;;13.90;67.70;;;;;;5060996;28;20274;-87
2021/05/19 08:45:35;;;;;;;4.00;2.90;;;14.00;66.70;;;;;;5062150;28;20304;-86
2021/05/19 08:48:04;;;;;;;5.37;3.00;;;13.80;63.60;;;;;;5058934;28;20178;-87
2021/05/19 08:50:31;;;;;;;3.03;2.70;;;13.80;65.10;;;;;;5055165;28;20544;-87
2021/05/19 08:52:58;;;;;;;3.57;3.23;;;14.20;63.40;;;;;;5053627;28;20215;-86
2021/05/19 08:55:24;;;;;;;2.90;2.67;;;14.40;62.80;;;;;;5062267;28;20295;-86
2021/05/19 08:57:50;;;;;;;3.50;2.63;;;14.20;64.90;;;;;;5055489;28;20184;-87
2021/05/19 09:00:16;;;;;;;3.00;2.80;;;14.30;65.90;;;;;;5054071;28;20183;-87
2021/05/19 09:03:06;;;;;;;3.33;2.53;;;14.50;65.20;;;;;;5057529;28;20266;-87
2021/05/19 09:05:32;;;;;;;3.43;2.43;;;14.90;62.20;;;;;;5062224;28;20176;-87
2021/05/19 09:08:05;;;;;;;2.93;2.40;;;15.00;62.60;;;;;;5062464;28;20227;-87
2021/05/19 09:10:30;;;;;;;2.93;2.50;;;15.10;60.30;;;;;;5057801;28;20178;-87
2021/05/19 09:12:56;;;;;;;2.90;2.70;;;15.40;59.90;;;;;;5051870;28;20231;-87
2021/05/19 09:15:23;;;;;;;3.40;2.50;;;15.50;60.60;;;;;;5046561;28;20273;-87
2021/05/19 09:17:56;;;;;;;3.17;2.53;;;15.50;56.50;;;;;;5055736;28;20193;-86
2021/05/19 09:20:22;;;;;;;3.40;2.37;;;15.40;57.70;;;;;;5055989;28;20658;-86
2021/05/19 09:23:00;;;;;;;3.70;2.40;;;15.30;56.90;;;;;;5060836;28;20231;-87
2021/05/19 09:25:28;;;;;;;2.60;2.40;;;15.60;59.20;;;;;;5062777;28;20204;-87
2021/05/19 09:28:00;;;;;;;2.50;2.30;;;15.80;58.20;;;;;;5059178;28;20197;-87
2021/05/19 09:30:38;;;;;;;2.93;2.63;;;16.10;56.90;;;;;;5062333;28;20192;-87
2021/05/19 09:33:30;;;;;;;6.67;2.87;;;15.90;56.70;;;;;;5060524;28;20219;-87
2021/05/19 09:36:19;;;;;;;5.80;2.60;;;16.00;54.10;;;;;;5054366;28;20211;-86
2021/05/19 09:38:50;;;;;;;4.23;2.27;;;16.10;56.70;;;;;;5060512;28;20181;-87
2021/05/19 09:41:28;;;;;;;3.37;2.40;;;16.40;54.50;;;;;;5050796;28;20199;-87
2021/05/19 09:43:57;;;;;;;3.40;2.30;;;16.70;53.90;;;;;;5046160;28;20259;-87
2021/05/19 09:49:16;;;;;;;3.57;2.40;;;16.90;52.00;;;;;;5059496;28;20172;-87
2021/05/19 09:51:49;;;;;;;4.00;2.70;;;17.20;52.60;;;;;;5060141;28;20276;-87
2021/05/19 09:54:27;;;;;;;6.07;2.67;;;17.50;50.20;;;;;;5061369;28;20716;-87
2021/05/19 09:56:55;;;;;;;3.77;2.23;;;17.40;49.90;;;;;;5062212;28;20653;-87
2021/05/19 09:59:22;;;;;;;5.53;2.10;;;17.40;49.20;;;;;;5053837;28;20238;-86
2021/05/19 10:01:49;;;;;;;2.73;1.90;;;17.00;50.80;;;;;;5051371;28;20225;-86
2021/05/19 10:04:15;;;;;;;2.00;1.90;;;16.60;50.90;;;;;;5053109;28;20191;-88
2021/05/19 10:06:42;;;;;;;2.67;2.10;;;16.30;51.30;;;;;;5060774;28;20647;-86
2021/05/19 10:09:07;;;;;;;2.70;2.47;;;16.60;51.80;;;;;;5059457;28;20188;-86
2021/05/19 10:11:34;;;;;;;4.40;2.20;;;16.90;53.00;;;;;;5061645;28;20220;-86
2021/05/19 10:14:02;;;;;;;3.47;2.30;;;17.10;52.30;;;;;;5062454;28;20195;-87
2021/05/19 10:16:30;;;;;;;2.97;2.30;;;17.30;52.30;;;;;;5056165;28;20195;-86
2021/05/19 10:18:57;;;;;;;2.90;2.20;;;17.70;52.50;;;;;;5054002;28;20189;-87
2021/05/19 10:21:31;;;;;;;3.70;2.30;;;17.70;49.70;;;;;;5063444;28;20248;-85
2021/05/19 10:24:06;;;;;;;5.20;2.40;;;17.60;50.20;;;;;;5067188;28;20190;-85
2021/05/19 10:26:52;;;;;;;2.67;2.33;;;17.60;49.80;;;;;;5059136;28;20247;-87
2021/05/19 10:29:53;;;;;;;2.77;2.23;;;17.70;50.60;;;;;;5051315;22;20237;-90
2021/05/19 10:32:21;;;;;;;4.43;2.43;;;18.10;49.40;;;;;;5037126;28;20200;-90
2021/05/19 10:34:48;;;;;;;4.07;1.80;;;18.20;47.70;;;;;;5037531;28;20185;-89
2021/05/19 10:37:49;;;;;;;2.47;2.10;;;18.40;46.80;;;;;;5037939;28;20192;-89
2021/05/19 10:40:18;;;;;;;3.07;2.00;;;18.70;46.50;;;;;;5007864;28;20194;-90
2021/05/19 10:42:52;;;;;;;4.07;2.30;;;18.80;45.90;;;;;;5016479;28;20186;-90
2021/05/19 10:45:19;;;;;;;5.13;2.15;;;19.10;44.50;;;;;;5017692;28;20182;-90
2021/05/19 10:47:48;;;;;;;2.50;2.30;;;19.60;43.70;;;;;;5016156;28;20228;-90
2021/05/19 10:50:32;;;;;;;3.35;2.33;;;19.60;46.80;;;;;;5016206;28;20248;-90
2021/05/19 10:58:38;;;;;;;3.00;2.25;;;19.60;45.40;;;;;;5017546;28;20212;-90
2021/05/19 11:01:06;;;;;;;3.25;2.00;;;19.50;42.50;;;;;;5017622;28;20230;-90
2021/05/19 11:03:32;;;;;;;3.85;2.30;;;19.60;41.20;;;;;;5020133;28;20284;-90
2021/05/19 11:05:57;;;;;;;2.65;2.03;;;19.80;42.60;;;;;;5020289;28;20201;-90
2021/05/19 11:08:28;;;;;;;3.78;2.13;;;20.00;44.00;;;;;;5018921;28;20209;-90
2021/05/19 11:11:27;;;;;;;3.83;2.10;;;19.80;41.80;;;;;;5014090;28;20200;-90
2021/05/19 11:14:28;;;;;;;3.65;2.13;;;19.40;43.20;;;;;;5017773;28;20200;-90
2021/05/19 11:16:55;;;;;;;4.82;2.13;;;19.40;44.90;;;;;;5017250;28;20212;-90
2021/05/19 11:19:29;;;;;;;2.35;2.00;;;19.90;41.90;;;;;;5020439;28;20204;-90
2021/05/19 11:21:59;;;;;;;8.93;2.38;;;20.50;42.00;;;;;;5031877;28;20188;-89
2021/05/19 11:24:27;;;;;;;2.25;2.10;;;20.80;43.50;;;;;;5035732;28;20189;-89
2021/05/19 11:26:53;;;;;;;3.33;2.17;;;21.00;39.90;;;;;;5026150;28;20209;-90
2021/05/19 11:29:19;;;;;;;3.30;2.20;;;21.20;40.80;;;;;;5019248;28;20255;-89
2021/05/19 11:31:47;;;;;;;2.38;2.10;;;21.50;37.70;;;;;;5029097;28;20239;-89
2021/05/19 11:34:21;;;;;;;4.85;2.20;;;21.90;36.10;;;;;;5032299;28;20196;-90
2021/05/19 11:36:49;;;;;;;3.33;2.05;;;21.70;36.90;;;;;;5024482;28;20237;-90
2021/05/19 11:39:24;;;;;;;2.40;2.17;;;20.50;38.20;;;;;;5018472;28;20267;-90
2021/05/19 11:41:52;;;;;;;3.38;2.20;;;20.30;39.10;;;;;;5017874;28;20207;-90
2021/05/19 11:44:35;;;;;;;2.95;1.90;;;20.00;40.90;;;;;;5017592;28;20197;-89
2021/05/19 11:47:02;;;;;;;3.45;2.05;;;19.90;40.40;;;;;;5020481;28;20217;-88
2021/05/19 11:49:28;;;;;;;3.42;1.88;;;19.90;41.30;;;;;;5019550;28;20221;-90
2021/05/19 11:51:54;;;;;;;3.28;2.30;;;19.80;39.70;;;;;;5020989;28;20216;-90
2021/05/19 11:54:21;;;;;;;3.25;1.90;;;19.80;42.50;;;;;;5020748;28;20193;-90
2021/05/19 11:56:53;;;;;;;2.08;1.85;;;19.80;41.80;;;;;;5018786;28;20187;-90
2021/05/19 11:59:26;;;;;;;2.30;2.10;;;19.90;40.40;;;;;;5009631;28;20215;-90
2021/05/19 12:01:57;;;;;;;3.33;1.90;;;19.90;39.90;;;;;;5020209;28;20676;-90
2021/05/19 12:04:26;;;;;;;3.83;1.95;;;19.70;39.60;;;;;;5020869;28;20250;-90
2021/05/19 12:06:52;;;;;;;4.72;2.42;;;19.60;40.00;;;;;;5020556;28;20250;-89
2021/05/19 12:09:18;;;;;;;3.25;2.30;;;19.60;39.80;;;;;;5021357;28;20225;-90
2021/05/19 12:11:45;;;;;;;4.07;2.10;;;19.80;42.70;;;;;;5020272;28;20564;-90
2021/05/19 12:14:11;;;;;;;2.95;1.70;;;20.10;41.80;;;;;;5018864;28;20186;-90
2021/05/19 12:16:43;;;;;;;3.03;1.90;;;20.80;40.80;;;;;;5017141;28;20698;-90
2021/05/19 12:19:26;;;;;;;2.72;2.00;;;21.30;40.90;;;;;;5020665;28;20283;-90
2021/05/19 12:22:08;;;;;;;4.93;1.88;;;21.90;38.80;;;;;;5020640;28;20181;-90
2021/05/19 12:24:34;;;;;;;2.97;2.22;;;22.20;36.60;;;;;;5004099;28;20193;-90
2021/05/19 12:27:00;;;;;;;3.53;1.73;;;21.80;36.50;;;;;;5018847;28;20328;-90
2021/05/19 12:29:46;;;;;;;2.55;2.17;;;21.30;36.10;;;;;;5019604;28;20225;-89
2021/05/19 12:32:25;;;;;;;4.45;2.10;;;21.10;35.40;;;;;;5016963;28;20216;-90
2021/05/19 12:35:12;;;;;;;3.33;1.90;;;21.10;37.10;;;;;;5016301;28;20213;-89
2021/05/19 12:38:01;;;;;;;2.72;2.13;;;20.80;36.80;;;;;;5016329;28;20215;-90
2021/05/19 12:40:32;;;;;;;2.05;1.80;;;20.60;38.40;;;;;;5018418;28;20189;-89
2021/05/19 12:43:03;;;;;;;4.07;1.90;;;20.60;37.60;;;;;;5017176;28;20187;-89
2021/05/19 12:45:37;;;;;;;3.95;1.90;;;20.00;40.70;;;;;;5017216;28;20197;-89
2021/05/19 12:48:11;;;;;;;4.57;2.10;;;19.00;46.40;;;;;;5017216;28;20203;-89
2021/05/19 12:50:38;;;;;;;2.07;1.90;;;18.20;50.10;;;;;;5016864;28;20589;-89
2021/05/19 12:53:04;;;;;;;2.53;1.70;;;17.40;54.00;;;;;;5015197;28;20210;-89
2021/05/19 12:55:30;;;;;;;4.13;1.97;;;16.70;56.80;;;;;;5016499;28;20308;-89
2021/05/19 12:58:11;;;;;;;4.60;1.97;;;16.40;60.10;;;;;;5017319;28;20367;-89
2021/05/19 13:00:56;;;;;;;3.73;2.33;;;16.20;67.30;;;;;;5017979;28;20189;-89
2021/05/19 13:03:48;;;;;;;4.87;2.10;;;15.70;72.00;;;;;;5019682;28;20186;-90
2021/05/19 13:06:15;;;;;;;2.83;2.00;;;15.20;76.60;;;;;;5020854;28;20205;-90
2021/05/19 13:08:40;;;;;;;2.90;1.97;;;14.80;76.20;;;;;;5024269;28;20263;-89